Time;durP1;ratioP1;P1;durP2;ratioP2;P2;SDS_P1;SDS_P2;PMS_P1;PMS_P2;Temp;Humidity;BMP_temperature;BMP_pressure;BME280_temperature;BME280_humidity;BME280_pressure;Samples;Min_cycle;Max_cycle;Signal;HPM_P1;HPM_P2
2022/06/05 00:00:00;;;;;;;17.23;8.82;;;;;;;;;;4971354;28;20620;-88
2022/06/05 00:02:26;;;;;;;17.60;8.82;;;;;;;;;;4965787;28;20034;-89
2022/06/05 00:05:11;;;;;;;18.02;9.02;;;;;;;;;;4963447;28;20413;-89
2022/06/05 00:07:39;;;;;;;17.70;8.63;;;;;;;;;;4969158;28;20026;-87
2022/06/05 00:10:09;;;;;;;20.33;9.23;;;;;;;;;;4965797;28;20040;-89
2022/06/05 00:12:50;;;;;;;20.92;8.60;;;;;;;;;;4985350;28;20054;-90
2022/06/05 00:15:16;;;;;;;27.13;9.93;;;;;;;;;;4969287;28;20368;-90
2022/06/05 00:17:42;;;;;;;19.02;9.15;;;;;;;;;;4968625;28;20035;-88
2022/06/05 00:20:09;;;;;;;16.90;9.73;;;;;;;;;;4964652;28;20030;-87
2022/06/05 00:22:35;;;;;;;22.92;10.18;;;;;;;;;;4971161;28;20037;-89
2022/06/05 00:25:01;;;;;;;19.35;9.60;;;;;;;;;;4982372;28;20030;-89
2022/06/05 00:27:32;;;;;;;21.35;9.90;;;;;;;;;;4984341;28;20068;-90
2022/06/05 00:30:04;;;;;;;20.27;10.00;;;;;;;;;;4965379;28;20470;-89
2022/06/05 00:32:35;;;;;;;22.88;9.98;;;;;;;;;;4963579;28;20077;-89
2022/06/05 00:35:07;;;;;;;18.63;9.25;;;;;;;;;;4969357;28;20062;-87
2022/06/05 00:37:46;;;;;;;19.58;9.68;;;;;;;;;;4968917;28;20386;-90
2022/06/05 00:40:26;;;;;;;18.33;8.25;;;;;;;;;;4968026;28;20041;-89
2022/06/05 00:42:52;;;;;;;19.42;8.77;;;;;;;;;;4969904;28;20037;-89
2022/06/05 00:45:19;;;;;;;19.70;8.30;;;;;;;;;;4964678;28;20510;-89
2022/06/05 00:47:46;;;;;;;20.83;9.43;;;;;;;;;;4982947;28;20088;-89
2022/06/05 00:50:27;;;;;;;26.33;10.10;;;;;;;;;;4972967;28;20351;-90
2022/06/05 00:52:55;;;;;;;20.40;9.38;;;;;;;;;;4964389;28;20026;-88
2022/06/05 00:55:22;;;;;;;19.38;8.68;;;;;;;;;;4978019;28;20037;-89
2022/06/05 00:57:48;;;;;;;27.45;9.07;;;;;;;;;;4959646;28;20037;-90
2022/06/05 01:00:20;;;;;;;19.98;9.57;;;;;;;;;;4962530;28;20490;-89
2022/06/05 01:02:48;;;;;;;22.08;8.85;;;;;;;;;;4966579;28;20043;-89
2022/06/05 01:05:15;;;;;;;24.42;9.65;;;;;;;;;;4966806;28;20046;-91
2022/06/05 01:07:41;;;;;;;20.00;9.00;;;;;;;;;;4964115;28;20504;-89
2022/06/05 01:10:08;;;;;;;17.65;9.07;;;;;;;;;;4963206;28;20114;-90
2022/06/05 01:12:52;;;;;;;20.83;9.10;;;;;;;;;;4964638;28;20037;-88
2022/06/05 01:15:18;;;;;;;17.05;8.88;;;;;;;;;;4965205;28;20573;-91
2022/06/05 01:17:47;;;;;;;25.85;10.50;;;;;;;;;;4984286;28;20019;-89
2022/06/05 01:20:22;;;;;;;19.90;8.55;;;;;;;;;;4966224;28;20047;-88
2022/06/05 01:22:54;;;;;;;27.48;8.35;;;;;;;;;;4958353;28;20117;-90
2022/06/05 01:25:39;;;;;;;22.40;8.60;;;;;;;;;;4964441;28;20046;-89
2022/06/05 01:28:09;;;;;;;20.92;8.43;;;;;;;;;;4964949;28;20022;-88
2022/06/05 01:30:41;;;;;;;25.92;8.68;;;;;;;;;;4980933;28;20386;-91
2022/06/05 01:33:10;;;;;;;17.92;8.15;;;;;;;;;;4962250;28;20038;-89
2022/06/05 01:35:49;;;;;;;37.83;9.20;;;;;;;;;;4979504;28;20031;-91
2022/06/05 01:38:20;;;;;;;17.38;8.10;;;;;;;;;;4966942;28;20034;-90
2022/06/05 01:40:48;;;;;;;13.98;7.25;;;;;;;;;;4959614;28;20131;-90
2022/06/05 01:43:19;;;;;;;19.75;7.97;;;;;;;;;;4958175;28;20097;-90
2022/06/05 01:45:54;;;;;;;14.70;7.40;;;;;;;;;;4959966;28;21125;-90
2022/06/05 01:48:31;;;;;;;25.70;8.63;;;;;;;;;;4968978;28;20042;-90
2022/06/05 01:51:12;;;;;;;20.00;8.38;;;;;;;;;;4960586;28;20055;-90
2022/06/05 01:53:43;;;;;;;15.90;7.75;;;;;;;;;;4947429;28;20050;-90
2022/06/05 01:56:13;;;;;;;16.27;7.28;;;;;;;;;;4944944;28;20031;-89
2022/06/05 01:58:41;;;;;;;16.65;8.30;;;;;;;;;;4948587;28;20027;-89
2022/06/05 02:01:15;;;;;;;20.98;8.23;;;;;;;;;;4961233;28;20027;-89
2022/06/05 02:03:47;;;;;;;16.88;7.85;;;;;;;;;;4965569;28;20038;-90
2022/06/05 02:06:20;;;;;;;18.02;8.18;;;;;;;;;;4946259;28;20030;-88
2022/06/05 02:08:49;;;;;;;20.77;7.93;;;;;;;;;;4940466;28;20478;-89
2022/06/05 02:11:22;;;;;;;22.90;8.75;;;;;;;;;;4944603;28;20023;-90
2022/06/05 02:13:54;;;;;;;14.25;8.65;;;;;;;;;;4960992;28;20138;-89
2022/06/05 02:16:20;;;;;;;18.85;8.27;;;;;;;;;;4949263;28;20342;-89
2022/06/05 02:18:46;;;;;;;17.52;8.05;;;;;;;;;;4960872;28;20490;-90
2022/06/05 02:21:13;;;;;;;16.42;8.07;;;;;;;;;;4947179;28;20674;-90
2022/06/05 02:23:40;;;;;;;19.77;8.25;;;;;;;;;;4964325;28;20026;-90
2022/06/05 02:26:08;;;;;;;22.02;8.93;;;;;;;;;;4947841;28;20039;-90
2022/06/05 02:28:34;;;;;;;20.05;8.63;;;;;;;;;;4948728;28;20053;-90
2022/06/05 02:31:24;;;;;;;22.67;9.80;;;;;;;;;;4956178;28;20081;-92
2022/06/05 02:34:08;;;;;;;20.88;9.52;;;;;;;;;;4948161;28;20226;-90
2022/06/05 02:36:55;;;;;;;18.48;8.70;;;;;;;;;;4941847;28;20483;-90
2022/06/05 02:39:21;;;;;;;18.50;8.75;;;;;;;;;;4944043;28;20043;-91
2022/06/05 02:42:11;;;;;;;22.58;8.63;;;;;;;;;;4945660;28;20037;-90
2022/06/05 02:45:12;;;;;;;21.90;9.05;;;;;;;;;;4944359;28;20062;-90
2022/06/05 02:47:38;;;;;;;17.50;8.25;;;;;;;;;;4875758;29;20081;-91
2022/06/05 02:50:20;;;;;;;28.05;9.52;;;;;;;;;;4941075;28;20498;-90
2022/06/05 02:52:47;;;;;;;23.00;10.60;;;;;;;;;;4945068;28;20569;-89
2022/06/05 02:55:15;;;;;;;23.23;10.40;;;;;;;;;;4944102;28;20482;-90
2022/06/05 02:57:41;;;;;;;24.98;9.60;;;;;;;;;;4951154;28;20056;-90
2022/06/05 03:00:09;;;;;;;17.13;9.30;;;;;;;;;;4938707;28;20090;-88
2022/06/05 03:05:20;;;;;;;20.13;10.00;;;;;;;;;;4958404;28;20058;-89
2022/06/05 03:07:46;;;;;;;26.83;9.95;;;;;;;;;;4950319;28;20412;-90
2022/06/05 03:10:12;;;;;;;23.05;10.90;;;;;;;;;;4945216;28;20129;-89
2022/06/05 03:12:41;;;;;;;20.17;10.88;;;;;;;;;;4939229;28;20073;-91
2022/06/05 03:15:07;;;;;;;28.90;11.13;;;;;;;;;;4947536;28;20070;-90
2022/06/05 03:17:33;;;;;;;25.95;10.02;;;;;;;;;;4964542;28;20039;-90
2022/06/05 03:20:00;;;;;;;21.70;10.05;;;;;;;;;;4946408;28;20061;-91
2022/06/05 03:22:26;;;;;;;27.08;10.52;;;;;;;;;;4942838;28;20499;-90
2022/06/05 03:24:52;;;;;;;29.30;10.57;;;;;;;;;;4944318;28;20039;-90
2022/06/05 03:27:19;;;;;;;26.40;10.98;;;;;;;;;;4959393;28;20070;-90
2022/06/05 03:29:45;;;;;;;24.27;10.15;;;;;;;;;;4949873;28;20028;-89
2022/06/05 03:32:11;;;;;;;19.42;9.90;;;;;;;;;;4939024;28;20035;-91
2022/06/05 03:34:37;;;;;;;24.52;10.43;;;;;;;;;;4943696;28;20042;-91
2022/06/05 03:37:04;;;;;;;27.00;12.18;;;;;;;;;;4942800;28;20082;-89
2022/06/05 03:39:33;;;;;;;24.23;9.60;;;;;;;;;;4941528;28;20035;-90
2022/06/05 03:41:59;;;;;;;25.55;11.10;;;;;;;;;;4946696;28;20201;-89
2022/06/05 03:44:26;;;;;;;20.98;10.23;;;;;;;;;;4944435;28;20034;-90
2022/06/05 03:46:52;;;;;;;21.30;9.35;;;;;;;;;;4943552;28;20133;-91
2022/06/05 03:49:19;;;;;;;24.08;10.73;;;;;;;;;;4939780;28;20160;-91
2022/06/05 03:51:45;;;;;;;23.17;10.68;;;;;;;;;;4948690;28;20043;-89
2022/06/05 03:54:11;;;;;;;21.15;9.82;;;;;;;;;;4943000;28;20410;-88
2022/06/05 03:56:37;;;;;;;20.80;9.15;;;;;;;;;;4962727;28;20031;-90
2022/06/05 03:59:03;;;;;;;22.40;10.32;;;;;;;;;;4942436;28;20039;-89
2022/06/05 04:01:29;;;;;;;27.08;11.23;;;;;;;;;;4946894;28;20121;-90
2022/06/05 04:03:56;;;;;;;24.73;10.75;;;;;;;;;;4947975;28;20208;-90
2022/06/05 04:06:30;;;;;;;23.83;10.95;;;;;;;;;;4943215;28;20065;-89
2022/06/05 04:09:00;;;;;;;22.20;9.68;;;;;;;;;;4968446;28;20057;-91
2022/06/05 04:11:27;;;;;;;29.83;10.98;;;;;;;;;;4955377;28;20143;-90
2022/06/05 04:13:53;;;;;;;24.85;10.52;;;;;;;;;;4943224;28;20118;-88
2022/06/05 04:16:20;;;;;;;23.00;9.90;;;;;;;;;;4947814;28;20459;-90
2022/06/05 04:18:47;;;;;;;22.42;10.18;;;;;;;;;;4949737;28;20117;-90
2022/06/05 04:21:16;;;;;;;27.50;10.63;;;;;;;;;;4969316;28;20030;-90
2022/06/05 04:23:42;;;;;;;27.13;10.35;;;;;;;;;;4949104;28;20121;-90
2022/06/05 04:26:10;;;;;;;15.70;9.73;;;;;;;;;;4954295;28;20038;-90
2022/06/05 04:28:36;;;;;;;20.63;9.98;;;;;;;;;;4947515;28;20066;-90
2022/06/05 04:31:03;;;;;;;22.70;11.10;;;;;;;;;;4946142;28;20030;-91
2022/06/05 04:33:32;;;;;;;21.48;9.82;;;;;;;;;;4964161;28;20037;-90
2022/06/05 04:35:58;;;;;;;24.48;9.88;;;;;;;;;;4952777;28;20030;-90
2022/06/05 04:38:24;;;;;;;19.95;9.63;;;;;;;;;;4947043;28;20023;-90
2022/06/05 04:40:50;;;;;;;22.63;9.98;;;;;;;;;;4948414;28;20030;-91
2022/06/05 04:43:16;;;;;;;22.52;9.65;;;;;;;;;;4945255;28;20443;-90
2022/06/05 04:45:43;;;;;;;18.27;9.02;;;;;;;;;;4942785;28;20137;-89
2022/06/05 04:48:10;;;;;;;17.17;9.63;;;;;;;;;;4943548;28;20035;-90
2022/06/05 04:50:36;;;;;;;18.35;8.70;;;;;;;;;;4949009;28;20030;-90
2022/06/05 04:53:09;;;;;;;27.30;9.85;;;;;;;;;;4972767;28;20124;-90
2022/06/05 04:55:38;;;;;;;24.40;9.15;;;;;;;;;;4968907;28;20058;-90
2022/06/05 04:58:04;;;;;;;18.50;9.80;;;;;;;;;;4966884;28;20215;-90
2022/06/05 05:00:31;;;;;;;22.40;10.55;;;;;;;;;;4976024;28;20034;-91
2022/06/05 05:02:57;;;;;;;16.00;9.30;;;;;;;;;;4980614;28;20027;-91
2022/06/05 05:05:23;;;;;;;23.80;10.15;;;;;;;;;;4967624;28;20050;-90
2022/06/05 05:07:49;;;;;;;21.48;9.35;;;;;;;;;;4968206;28;20049;-89
2022/06/05 05:10:15;;;;;;;15.95;9.43;;;;;;;;;;4981399;28;20041;-90
2022/06/05 05:12:41;;;;;;;17.27;9.18;;;;;;;;;;4982266;28;20034;-90
2022/06/05 05:15:08;;;;;;;33.08;10.70;;;;;;;;;;4976620;28;20026;-90
2022/06/05 05:17:34;;;;;;;15.13;8.43;;;;;;;;;;4981646;28;20023;-91
2022/06/05 05:20:00;;;;;;;23.83;9.25;;;;;;;;;;4966483;28;20482;-90
2022/06/05 05:22:26;;;;;;;21.30;10.10;;;;;;;;;;4979567;28;20069;-91
2022/06/05 05:24:52;;;;;;;21.67;10.23;;;;;;;;;;4967437;28;20034;-91
2022/06/05 05:27:20;;;;;;;18.45;9.98;;;;;;;;;;4962622;28;20506;-91
2022/06/05 05:29:46;;;;;;;23.50;9.65;;;;;;;;;;4980678;28;20363;-91
2022/06/05 05:32:12;;;;;;;19.17;11.02;;;;;;;;;;4978917;28;20046;-91
2022/06/05 05:34:39;;;;;;;14.73;8.68;;;;;;;;;;4962788;28;20061;-91
2022/06/05 05:37:05;;;;;;;21.58;10.65;;;;;;;;;;4966157;28;20089;-91
2022/06/05 05:42:16;;;;;;;25.77;8.82;;;;;;;;;;4982452;28;20074;-91
2022/06/05 05:44:47;;;;;;;15.63;8.23;;;;;;;;;;4965061;28;20171;-91
2022/06/05 05:47:18;;;;;;;12.30;8.10;;;;;;;;;;4962245;28;20113;-89
2022/06/05 05:49:44;;;;;;;21.85;8.60;;;;;;;;;;4962706;28;20398;-91
2022/06/05 05:52:10;;;;;;;16.35;9.50;;;;;;;;;;4968821;28;20059;-91
2022/06/05 05:54:37;;;;;;;17.73;9.48;;;;;;;;;;4977684;28;20062;-91
2022/06/05 05:57:04;;;;;;;15.43;8.55;;;;;;;;;;4977870;28;20029;-92
2022/06/05 05:59:30;;;;;;;16.40;8.82;;;;;;;;;;4978948;28;20486;-92
2022/06/05 06:01:56;;;;;;;12.98;8.63;;;;;;;;;;4979529;28;20038;-90
2022/06/05 06:04:22;;;;;;;13.68;8.43;;;;;;;;;;4964588;28;20031;-90
2022/06/05 06:06:52;;;;;;;13.48;8.27;;;;;;;;;;4966824;28;20500;-92
2022/06/05 06:09:19;;;;;;;14.93;8.45;;;;;;;;;;4967558;28;20433;-92
2022/06/05 06:11:46;;;;;;;14.95;8.52;;;;;;;;;;4963310;28;20049;-90
2022/06/05 06:14:12;;;;;;;15.52;8.80;;;;;;;;;;4961754;28;20118;-90
2022/06/05 06:16:38;;;;;;;17.40;9.57;;;;;;;;;;4961752;28;20069;-91
2022/06/05 06:19:04;;;;;;;16.58;8.00;;;;;;;;;;4965441;28;20034;-91
2022/06/05 06:21:31;;;;;;;19.70;10.90;;;;;;;;;;4963664;28;20046;-91
2022/06/05 06:23:57;;;;;;;14.70;8.73;;;;;;;;;;4959571;28;20065;-91
2022/06/05 06:26:23;;;;;;;15.05;8.55;;;;;;;;;;4960873;28;20486;-92
2022/06/05 06:28:49;;;;;;;17.33;8.63;;;;;;;;;;4961681;28;20443;-91
2022/06/05 06:31:16;;;;;;;13.18;8.63;;;;;;;;;;4964099;28;20026;-90
2022/06/05 06:33:42;;;;;;;14.82;8.27;;;;;;;;;;4979827;28;20034;-90
2022/06/05 06:36:11;;;;;;;16.05;9.07;;;;;;;;;;4967545;28;20552;-88
2022/06/05 06:38:37;;;;;;;14.57;7.93;;;;;;;;;;4965927;28;20026;-89
2022/06/05 06:41:05;;;;;;;16.33;8.75;;;;;;;;;;4966428;28;20477;-89
2022/06/05 06:43:31;;;;;;;12.52;8.13;;;;;;;;;;4979153;28;20085;-89
2022/06/05 06:45:58;;;;;;;12.68;8.38;;;;;;;;;;4960234;28;20374;-90
2022/06/05 06:48:24;;;;;;;15.32;8.38;;;;;;;;;;4961956;28;20022;-89
2022/06/05 06:50:52;;;;;;;12.52;8.00;;;;;;;;;;4965533;28;20035;-91
2022/06/05 06:53:18;;;;;;;18.33;7.93;;;;;;;;;;4965923;28;20065;-89
2022/06/05 06:55:44;;;;;;;13.68;8.90;;;;;;;;;;4963853;28;20058;-89
2022/06/05 06:58:10;;;;;;;11.95;8.43;;;;;;;;;;4981893;28;20109;-89
2022/06/05 07:00:36;;;;;;;12.38;8.45;;;;;;;;;;4954067;28;20176;-89
2022/06/05 07:03:02;;;;;;;10.50;7.55;;;;;;;;;;4957227;28;20393;-88
2022/06/05 07:05:28;;;;;;;13.50;7.90;;;;;;;;;;4967194;28;20046;-91
2022/06/05 07:07:55;;;;;;;14.27;8.25;;;;;;;;;;4963112;28;20034;-90
2022/06/05 07:10:21;;;;;;;14.23;8.80;;;;;;;;;;4958896;28;20136;-90
2022/06/05 07:12:48;;;;;;;12.60;9.02;;;;;;;;;;4960318;28;20546;-91
2022/06/05 07:15:14;;;;;;;13.70;7.97;;;;;;;;;;4961863;28;20034;-90
2022/06/05 07:17:41;;;;;;;12.80;8.20;;;;;;;;;;4958855;28;20305;-89
2022/06/05 07:20:07;;;;;;;13.23;8.48;;;;;;;;;;4975282;28;20046;-89
2022/06/05 07:22:33;;;;;;;12.27;8.25;;;;;;;;;;4963786;28;20030;-91
2022/06/05 07:25:06;;;;;;;11.48;8.02;;;;;;;;;;4966160;28;20054;-90
2022/06/05 07:27:32;;;;;;;11.52;8.63;;;;;;;;;;4966772;28;20647;-91
2022/06/05 07:29:58;;;;;;;15.40;7.93;;;;;;;;;;4964455;28;20149;-92
2022/06/05 07:32:24;;;;;;;16.63;8.43;;;;;;;;;;4982239;28;20795;-90
2022/06/05 07:34:50;;;;;;;13.77;8.40;;;;;;;;;;4962850;28;20667;-91
2022/06/05 07:37:17;;;;;;;18.02;8.75;;;;;;;;;;4980137;28;20160;-91
2022/06/05 07:39:43;;;;;;;14.13;9.02;;;;;;;;;;4971681;28;20584;-93
2022/06/05 07:42:10;;;;;;;17.02;9.75;;;;;;;;;;4967151;28;20037;-89
2022/06/05 07:44:36;;;;;;;14.68;8.82;;;;;;;;;;4986511;28;20552;-92
2022/06/05 07:47:04;;;;;;;13.20;7.93;;;;;;;;;;4982809;28;20394;-89
2022/06/05 07:49:30;;;;;;;14.32;9.43;;;;;;;;;;4961644;28;20026;-90
2022/06/05 07:54:41;;;;;;;12.88;8.20;;;;;;;;;;4984099;28;20045;-90
2022/06/05 07:57:08;;;;;;;11.63;7.63;;;;;;;;;;4964594;28;20042;-90
2022/06/05 07:59:36;;;;;;;12.25;8.38;;;;;;;;;;4962977;28;20033;-90
2022/06/05 08:02:05;;;;;;;11.20;7.78;;;;;;;;;;4975865;28;20458;-90
2022/06/05 08:04:31;;;;;;;11.90;8.05;;;;;;;;;;4963974;28;20999;-88
2022/06/05 08:06:58;;;;;;;10.57;7.60;;;;;;;;;;4986075;28;20407;-90
2022/06/05 08:09:24;;;;;;;12.32;7.40;;;;;;;;;;4968050;28;20038;-91
2022/06/05 08:11:50;;;;;;;11.35;7.07;;;;;;;;;;4980310;28;20027;-90
2022/06/05 08:14:17;;;;;;;12.82;8.20;;;;;;;;;;4970269;28;20053;-89
2022/06/05 08:16:43;;;;;;;12.18;7.63;;;;;;;;;;4980443;28;20505;-88
2022/06/05 08:19:14;;;;;;;12.82;7.57;;;;;;;;;;4969096;28;20034;-90
2022/06/05 08:21:40;;;;;;;9.13;7.28;;;;;;;;;;4961750;28;20118;-92
2022/06/05 08:24:06;;;;;;;13.27;7.32;;;;;;;;;;4959030;28;20057;-90
2022/06/05 08:26:33;;;;;;;9.27;6.55;;;;;;;;;;4965441;28;20548;-89
2022/06/05 08:28:59;;;;;;;12.38;7.38;;;;;;;;;;4988143;28;20096;-90
2022/06/05 08:31:27;;;;;;;12.65;7.32;;;;;;;;;;4971224;28;20555;-90
2022/06/05 08:33:53;;;;;;;10.88;7.20;;;;;;;;;;4968413;28;20129;-91
2022/06/05 08:36:22;;;;;;;12.13;7.20;;;;;;;;;;4969800;28;20034;-91
2022/06/05 08:41:39;;;;;;;12.02;7.45;;;;;;;;;;4988271;28;20045;-91
2022/06/05 08:44:08;;;;;;;11.95;6.82;;;;;;;;;;4968181;28;20557;-91
2022/06/05 08:46:35;;;;;;;9.05;6.90;;;;;;;;;;4974771;28;20608;-91
2022/06/05 08:49:08;;;;;;;11.45;6.90;;;;;;;;;;4976507;28;20266;-90
2022/06/05 08:51:37;;;;;;;9.48;6.50;;;;;;;;;;4962695;28;20046;-90
2022/06/05 08:54:11;;;;;;;8.73;6.57;;;;;;;;;;4963976;28;20065;-91
2022/06/05 08:56:37;;;;;;;10.80;6.43;;;;;;;;;;4975985;28;22229;-90
2022/06/05 08:59:15;;;;;;;10.00;6.35;;;;;;;;;;4971644;28;20039;-91
2022/06/05 09:01:57;;;;;;;10.05;6.70;;;;;;;;;;4985072;28;20034;-90
2022/06/05 09:04:26;;;;;;;10.88;6.97;;;;;;;;;;4982645;28;20043;-90
2022/06/05 09:06:57;;;;;;;9.45;7.03;;;;;;;;;;4968193;28;20106;-91
2022/06/05 09:09:26;;;;;;;11.23;6.95;;;;;;;;;;4965509;28;20037;-91
2022/06/05 09:11:55;;;;;;;10.45;7.05;;;;;;;;;;4982556;28;20529;-91
2022/06/05 09:14:29;;;;;;;7.57;6.30;;;;;;;;;;4978263;28;20483;-90
2022/06/05 09:16:58;;;;;;;8.43;6.35;;;;;;;;;;4959924;28;20136;-91
2022/06/05 09:19:25;;;;;;;11.07;6.45;;;;;;;;;;4974229;28;20034;-91
2022/06/05 09:22:06;;;;;;;9.20;6.00;;;;;;;;;;4981203;28;20398;-92
2022/06/05 09:24:48;;;;;;;9.52;6.18;;;;;;;;;;4960031;28;20141;-90
2022/06/05 09:27:27;;;;;;;9.60;6.30;;;;;;;;;;4967788;28;20556;-91
2022/06/05 09:30:20;;;;;;;9.25;5.90;;;;;;;;;;4962869;28;20335;-91
2022/06/05 09:33:25;;;;;;;8.40;5.72;;;;;;;;;;4958944;28;20039;-91
2022/06/05 09:35:52;;;;;;;10.13;6.35;;;;;;;;;;4905050;29;20256;-90
2022/06/05 09:38:44;;;;;;;7.78;6.22;;;;;;;;;;4905958;29;20488;-92
2022/06/05 09:41:25;;;;;;;8.20;6.05;;;;;;;;;;4905630;29;20071;-89
2022/06/05 09:44:18;;;;;;;8.00;5.80;;;;;;;;;;4908880;29;20111;-91
2022/06/05 09:46:47;;;;;;;9.75;6.70;;;;;;;;;;4943589;28;20207;-92
2022/06/05 09:49:17;;;;;;;8.90;5.78;;;;;;;;;;4961096;28;20067;-92
2022/06/05 09:51:45;;;;;;;8.55;6.43;;;;;;;;;;4963828;28;20521;-91
2022/06/05 09:54:23;;;;;;;9.32;5.68;;;;;;;;;;4962401;28;20483;-89
2022/06/05 10:00:08;;;;;;;7.25;5.80;;;;;;;;;;4974288;28;20708;-92
2022/06/05 10:02:34;;;;;;;7.65;6.38;;;;;;;;;;4962428;28;20030;-92
2022/06/05 10:05:00;;;;;;;7.85;5.32;;;;;;;;;;4956252;28;20802;-92
2022/06/05 10:07:29;;;;;;;9.20;5.82;;;;;;;;;;4972890;28;21999;-91
2022/06/05 10:09:56;;;;;;;7.85;5.97;;;;;;;;;;4975873;28;20145;-90
2022/06/05 10:12:45;;;;;;;13.50;6.53;;;;;;;;;;4964037;28;20125;-91
2022/06/05 10:15:26;;;;;;;7.45;5.50;;;;;;;;;;4960233;28;20548;-92
2022/06/05 10:17:58;;;;;;;12.30;7.03;;;;;;;;;;4960355;28;20027;-91
2022/06/05 10:20:24;;;;;;;12.38;5.93;;;;;;;;;;4962190;28;20041;-90
2022/06/05 10:22:50;;;;;;;12.60;6.35;;;;;;;;;;4972990;28;20061;-89
2022/06/05 10:25:16;;;;;;;8.60;5.88;;;;;;;;;;4971205;28;20038;-91
2022/06/05 10:27:53;;;;;;;8.10;5.35;;;;;;;;;;4966724;28;20034;-91
2022/06/05 10:30:20;;;;;;;10.00;5.47;;;;;;;;;;4981064;28;20034;-91
2022/06/05 10:33:00;;;;;;;6.50;5.85;;;;;;;;;;4974099;28;20027;-90
2022/06/05 10:35:30;;;;;;;7.82;4.68;;;;;;;;;;4966027;28;20076;-91
2022/06/05 10:38:00;;;;;;;9.25;5.68;;;;;;;;;;4961592;28;20490;-91
2022/06/05 10:40:29;;;;;;;6.70;5.40;;;;;;;;;;4961395;28;20056;-90
2022/06/05 10:43:01;;;;;;;11.02;5.88;;;;;;;;;;4979167;28;20062;-89
2022/06/05 10:45:30;;;;;;;7.47;5.57;;;;;;;;;;4972730;28;20422;-90
2022/06/05 10:47:56;;;;;;;8.75;5.68;;;;;;;;;;4975885;28;20053;-90
2022/06/05 10:50:31;;;;;;;8.45;5.78;;;;;;;;;;4960999;28;20066;-89
2022/06/05 10:53:01;;;;;;;10.75;5.97;;;;;;;;;;4981044;28;20049;-91
2022/06/05 10:55:28;;;;;;;6.57;5.47;;;;;;;;;;4968225;28;20129;-90
2022/06/05 10:58:00;;;;;;;8.18;5.78;;;;;;;;;;4962228;28;20026;-90
2022/06/05 11:00:36;;;;;;;6.35;5.35;;;;;;;;;;4960875;28;20093;-89
2022/06/05 11:03:12;;;;;;;11.95;5.68;;;;;;;;;;4981585;28;20255;-90
2022/06/05 11:05:56;;;;;;;7.38;5.45;;;;;;;;;;4958191;28;20038;-91
2022/06/05 11:08:41;;;;;;;7.32;4.88;;;;;;;;;;4984109;28;20042;-90
2022/06/05 11:13:52;;;;;;;8.18;5.13;;;;;;;;;;4977796;28;20073;-90
2022/06/05 11:16:21;;;;;;;9.32;5.95;;;;;;;;;;4959145;28;20030;-91
2022/06/05 11:18:53;;;;;;;6.07;4.57;;;;;;;;;;4967990;28;20034;-89
2022/06/05 11:21:21;;;;;;;10.13;5.65;;;;;;;;;;4972884;28;20491;-91
2022/06/05 11:23:49;;;;;;;8.65;5.20;;;;;;;;;;4983486;28;20027;-92
2022/06/05 11:26:44;;;;;;;9.70;4.97;;;;;;;;;;4975611;28;20034;-90
2022/06/05 11:29:16;;;;;;;7.18;5.20;;;;;;;;;;4943909;28;20528;-91
2022/06/05 11:31:42;;;;;;;12.60;5.32;;;;;;;;;;4985828;28;20046;-91
2022/06/05 11:34:35;;;;;;;5.97;4.72;;;;;;;;;;4971334;28;20065;-91
2022/06/05 11:37:13;;;;;;;7.20;4.95;;;;;;;;;;4965553;28;20268;-91
2022/06/05 11:39:48;;;;;;;7.05;5.05;;;;;;;;;;4979642;28;20093;-91
2022/06/05 11:42:14;;;;;;;9.20;4.97;;;;;;;;;;4970548;28;20031;-91
2022/06/05 11:44:54;;;;;;;8.68;4.95;;;;;;;;;;4971197;28;20037;-91
2022/06/05 11:47:27;;;;;;;6.80;4.95;;;;;;;;;;4975027;28;20327;-90
2022/06/05 11:49:56;;;;;;;5.95;4.80;;;;;;;;;;4982014;28;20121;-86
2022/06/05 11:52:26;;;;;;;6.13;4.90;;;;;;;;;;4973224;28;20044;-86
2022/06/05 11:54:52;;;;;;;7.55;5.22;;;;;;;;;;4964188;28;20030;-86
2022/06/05 11:57:25;;;;;;;10.95;4.97;;;;;;;;;;4968465;28;20030;-86
2022/06/05 12:00:12;;;;;;;8.93;5.10;;;;;;;;;;4978936;28;20487;-86
2022/06/05 12:02:58;;;;;;;7.07;4.88;;;;;;;;;;4969981;28;20045;-86
2022/06/05 12:05:24;;;;;;;;;;;;;;;;;;4967480;28;20046;-86
2022/06/05 12:07:51;;;;;;;7.28;5.43;;;;;;;;;;4960847;28;20380;-86
2022/06/05 12:10:22;;;;;;;8.05;5.53;;;;;;;;;;4968066;28;20053;-86
2022/06/05 12:12:51;;;;;;;13.48;4.88;;;;;;;;;;4968195;28;20599;-85
2022/06/05 12:15:17;;;;;;;6.50;4.78;;;;;;;;;;4980027;28;20031;-85
2022/06/05 12:17:52;;;;;;;6.32;4.63;;;;;;;;;;4968993;28;20445;-86
2022/06/05 12:20:29;;;;;;;8.83;4.87;;;;;;;;;;4968652;28;20089;-85
2022/06/05 12:23:13;;;;;;;7.05;5.00;;;;;;;;;;4979359;28;20347;-86
2022/06/05 12:25:53;;;;;;;8.55;4.75;;;;;;;;;;4963987;28;20382;-86
2022/06/05 12:28:26;;;;;;;7.13;5.20;;;;;;;;;;4965982;28;20434;-86
2022/06/05 12:30:58;;;;;;;7.80;5.25;;;;;;;;;;4966017;28;20655;-85
2022/06/05 12:33:28;;;;;;;11.30;5.55;;;;;;;;;;4963423;28;20030;-84
2022/06/05 12:35:55;;;;;;;7.00;5.03;;;;;;;;;;4985127;28;20040;-85
2022/06/05 12:38:22;;;;;;;10.75;5.15;;;;;;;;;;4965195;28;20038;-85
2022/06/05 12:41:17;;;;;;;8.15;4.80;;;;;;;;;;4982889;28;20026;-86
2022/06/05 12:43:48;;;;;;;8.63;5.18;;;;;;;;;;4947549;28;20042;-86
2022/06/05 12:46:30;;;;;;;10.38;5.45;;;;;;;;;;4963812;28;20031;-85
2022/06/05 12:49:09;;;;;;;9.77;4.70;;;;;;;;;;4971693;28;20117;-89
2022/06/05 12:51:36;;;;;;;8.25;5.40;;;;;;;;;;4967515;28;20126;-89
2022/06/05 12:54:05;;;;;;;8.35;4.88;;;;;;;;;;4965537;28;20106;-90
2022/06/05 12:56:42;;;;;;;7.55;4.55;;;;;;;;;;4955496;28;20053;-90
2022/06/05 12:59:14;;;;;;;9.30;5.13;;;;;;;;;;4970026;28;20030;-90
2022/06/05 13:01:44;;;;;;;6.38;4.70;;;;;;;;;;4962674;28;20040;-89
2022/06/05 13:04:28;;;;;;;7.13;4.80;;;;;;;;;;4966400;28;20299;-90
2022/06/05 13:07:10;;;;;;;6.53;4.93;;;;;;;;;;4968014;28;20034;-91
2022/06/05 13:09:48;;;;;;;5.18;4.20;;;;;;;;;;4969118;28;20034;-88
2022/06/05 13:12:23;;;;;;;5.55;4.93;;;;;;;;;;4969711;28;20340;-91
2022/06/05 13:14:49;;;;;;;9.10;5.13;;;;;;;;;;4984858;28;20041;-90
2022/06/05 13:17:19;;;;;;;8.52;5.10;;;;;;;;;;4967498;28;20049;-90
2022/06/05 13:19:56;;;;;;;8.95;5.05;;;;;;;;;;4978124;28;20674;-90
2022/06/05 13:22:36;;;;;;;9.80;5.47;;;;;;;;;;4978620;28;20046;-89
2022/06/05 13:25:26;;;;;;;10.55;5.10;;;;;;;;;;4980442;28;20116;-90
2022/06/05 13:27:58;;;;;;;7.05;4.75;;;;;;;;;;4976299;28;20430;-85
2022/06/05 13:30:27;;;;;;;8.30;5.00;;;;;;;;;;4960676;28;20038;-86
2022/06/05 13:32:55;;;;;;;6.63;4.72;;;;;;;;;;4964194;28;20038;-86
2022/06/05 13:35:34;;;;;;;8.93;5.15;;;;;;;;;;4970814;28;20821;-85
2022/06/05 13:38:18;;;;;;;10.32;4.47;;;;;;;;;;4965706;28;20030;-86
2022/06/05 13:40:47;;;;;;;8.60;4.70;;;;;;;;;;4963786;28;20030;-86
2022/06/05 13:43:40;;;;;;;5.60;4.70;;;;;;;;;;4981887;28;20129;-85
2022/06/05 13:46:12;;;;;;;9.45;4.97;;;;;;;;;;4957649;28;20049;-85
2022/06/05 13:48:52;;;;;;;5.68;4.40;;;;;;;;;;4976857;28;20185;-85
2022/06/05 13:51:25;;;;;;;6.75;4.88;;;;;;;;;;4969425;28;20110;-86
2022/06/05 13:54:11;;;;;;;11.55;5.07;;;;;;;;;;4975703;28;20053;-86
2022/06/05 13:56:53;;;;;;;7.43;5.20;;;;;;;;;;4983753;28;20653;-86
2022/06/05 13:59:27;;;;;;;6.90;4.93;;;;;;;;;;4975389;28;20046;-85
2022/06/05 14:02:09;;;;;;;6.68;4.57;;;;;;;;;;4985486;28;20422;-85
2022/06/05 14:04:52;;;;;;;4.60;4.20;;;;;;;;;;4964325;28;20042;-86
2022/06/05 14:07:19;;;;;;;10.48;4.78;;;;;;;;;;4971882;28;20050;-85
2022/06/05 14:09:56;;;;;;;9.55;4.47;;;;;;;;;;4961012;28;20058;-86
2022/06/05 14:12:28;;;;;;;6.20;4.40;;;;;;;;;;4965865;28;20030;-86
2022/06/05 14:14:54;;;;;;;10.45;4.28;;;;;;;;;;4968677;28;20025;-87
2022/06/05 14:17:28;;;;;;;4.80;3.92;;;;;;;;;;4979118;28;20034;-85
2022/06/05 14:20:00;;;;;;;5.63;4.20;;;;;;;;;;4961574;28;20516;-85
2022/06/05 14:22:28;;;;;;;7.15;4.18;;;;;;;;;;4968523;28;20036;-86
2022/06/05 14:25:01;;;;;;;5.82;4.32;;;;;;;;;;4960215;28;20027;-85
2022/06/05 14:27:29;;;;;;;10.02;4.72;;;;;;;;;;4977931;28;20034;-85
2022/06/05 14:29:56;;;;;;;9.25;4.80;;;;;;;;;;4963524;28;20774;-85
2022/06/05 14:32:26;;;;;;;6.00;4.53;;;;;;;;;;4964199;28;20157;-85
2022/06/05 14:35:12;;;;;;;9.57;4.25;;;;;;;;;;4960774;28;20074;-85
2022/06/05 14:37:39;;;;;;;5.40;4.03;;;;;;;;;;4968233;28;20026;-86
2022/06/05 14:40:10;;;;;;;5.13;4.03;;;;;;;;;;4961605;28;20409;-86
2022/06/05 14:42:40;;;;;;;5.03;4.18;;;;;;;;;;4981313;28;20135;-85
2022/06/05 14:45:21;;;;;;;7.60;4.93;;;;;;;;;;4966968;28;20038;-86
2022/06/05 14:47:47;;;;;;;6.32;4.65;;;;;;;;;;4966630;28;20684;-86
2022/06/05 14:50:16;;;;;;;9.75;5.68;;;;;;;;;;4981291;28;20034;-85
2022/06/05 14:53:01;;;;;;;9.32;4.53;;;;;;;;;;4980353;28;20049;-85
2022/06/05 14:58:18;;;;;;;10.77;4.63;;;;;;;;;;4981828;28;20125;-85
2022/06/05 15:00:44;;;;;;;6.70;4.38;;;;;;;;;;4969027;28;20323;-85
2022/06/05 15:03:29;;;;;;;5.75;4.15;;;;;;;;;;4961819;28;20041;-87
2022/06/05 15:05:59;;;;;;;7.80;4.43;;;;;;;;;;4968331;28;20165;-85
2022/06/05 15:08:44;;;;;;;9.25;5.22;;;;;;;;;;4964326;28;20046;-85
2022/06/05 15:11:16;;;;;;;8.13;4.30;;;;;;;;;;4971018;28;20084;-85
2022/06/05 15:13:45;;;;;;;5.13;4.15;;;;;;;;;;4967431;28;20490;-85